Portada
METAR-TAF:

METAR-TAF

Aeroports :

De Queen, Arkansas, Estats Units d'Amèrica

latitud: 34-02-49N, longitud: 094-23-58W, altitud: 108 m

Observació

L'informe es va fer fa 39 minuts, a les 23:53 UTC
Vent calma
Temperatura 18°C
Humitat 94%
Pressió 1014 hPa
Visibilitat: 16.1 km
Cel cobert a una alçada de 3900 ft

METAR: KDEQ 032353Z AUTO 00000KT 10SM OVC039 18/17 A2994 RMK AO1 SLP136 6//// T01830167 10206 20183 56004

Hora: 19:32 (00:32 UTC)


TAF: manca

Observacions i pronòstics meteorològics de més de 4000 aeroports (METAR i TAF).

Les estacions disponibles són els punts grocs i vermells al mapa.

Posi el ratolí al punt desitjat per veure el nom de l'estació.

Feu clic per veure les observacions i els pronòstics meteorològics.

Per canviar el mapa: feu clic els botons verds amb una creu de color negre per apropar; al botó verd amb un guió per allunyar la imatge; o en les fletxes verdes per a mapes adjacents.


METAR-TAF: